sensor_id;sensor_type;location;lat;lon;timestamp;temperature;humidity
20526;DHT22;10421;49.142;9.232;2023-05-10T00:01:27;17.80;99.90
20526;DHT22;10421;49.142;9.232;2023-05-10T00:03:54;17.70;99.90
20526;DHT22;10421;49.142;9.232;2023-05-10T00:06:21;17.70;99.90
20526;DHT22;10421;49.142;9.232;2023-05-10T00:08:48;17.50;99.90
20526;DHT22;10421;49.142;9.232;2023-05-10T00:11:14;17.50;99.90
20526;DHT22;10421;49.142;9.232;2023-05-10T00:13:42;17.50;99.90
20526;DHT22;10421;49.142;9.232;2023-05-10T00:16:09;17.50;99.90
20526;DHT22;10421;49.142;9.232;2023-05-10T00:18:37;17.50;99.90
20526;DHT22;10421;49.142;9.232;2023-05-10T00:21:04;17.50;99.90
20526;DHT22;10421;49.142;9.232;2023-05-10T00:23:31;17.50;99.90
20526;DHT22;10421;49.142;9.232;2023-05-10T00:25:58;17.50;99.90
20526;DHT22;10421;49.142;9.232;2023-05-10T00:28:24;17.50;99.90
20526;DHT22;10421;49.142;9.232;2023-05-10T00:30:52;17.40;99.90
20526;DHT22;10421;49.142;9.232;2023-05-10T00:33:19;17.50;99.90
20526;DHT22;10421;49.142;9.232;2023-05-10T00:35:46;17.40;99.90
20526;DHT22;10421;49.142;9.232;2023-05-10T00:38:12;17.40;99.90
20526;DHT22;10421;49.142;9.232;2023-05-10T00:40:39;17.40;99.90
20526;DHT22;10421;49.142;9.232;2023-05-10T00:43:06;17.50;99.90
20526;DHT22;10421;49.142;9.232;2023-05-10T00:45:33;17.40;99.90
20526;DHT22;10421;49.142;9.232;2023-05-10T00:48:04;17.40;99.90
20526;DHT22;10421;49.142;9.232;2023-05-10T00:50:32;17.50;99.90
20526;DHT22;10421;49.142;9.232;2023-05-10T00:53:00;17.40;99.90
20526;DHT22;10421;49.142;9.232;2023-05-10T00:55:27;17.20;99.90
20526;DHT22;10421;49.142;9.232;2023-05-10T00:57:54;17.20;99.90
20526;DHT22;10421;49.142;9.232;2023-05-10T01:00:21;17.20;99.90
20526;DHT22;10421;49.142;9.232;2023-05-10T01:02:48;17.20;99.90
20526;DHT22;10421;49.142;9.232;2023-05-10T01:05:16;17.20;99.90
20526;DHT22;10421;49.142;9.232;2023-05-10T01:07:43;17.10;99.90
20526;DHT22;10421;49.142;9.232;2023-05-10T01:10:10;17.00;99.90
20526;DHT22;10421;49.142;9.232;2023-05-10T01:12:39;17.10;99.90
20526;DHT22;10421;49.142;9.232;2023-05-10T01:15:07;17.00;99.90
20526;DHT22;10421;49.142;9.232;2023-05-10T01:17:38;17.10;99.90
20526;DHT22;10421;49.142;9.232;2023-05-10T01:20:07;17.00;99.90
20526;DHT22;10421;49.142;9.232;2023-05-10T01:23:04;17.00;99.90
20526;DHT22;10421;49.142;9.232;2023-05-10T01:25:58;16.90;99.90
20526;DHT22;10421;49.142;9.232;2023-05-10T01:28:42;17.00;99.90
20526;DHT22;10421;49.142;9.232;2023-05-10T01:31:36;16.90;99.90
20526;DHT22;10421;49.142;9.232;2023-05-10T01:34:08;16.70;99.90
20526;DHT22;10421;49.142;9.232;2023-05-10T01:36:42;16.70;99.90
20526;DHT22;10421;49.142;9.232;2023-05-10T01:39:14;16.70;99.90
20526;DHT22;10421;49.142;9.232;2023-05-10T01:41:48;16.60;99.90
20526;DHT22;10421;49.142;9.232;2023-05-10T01:44:24;16.70;99.90
20526;DHT22;10421;49.142;9.232;2023-05-10T01:46:56;16.70;99.90
20526;DHT22;10421;49.142;9.232;2023-05-10T01:49:27;16.70;99.90
20526;DHT22;10421;49.142;9.232;2023-05-10T01:52:08;16.60;99.90
20526;DHT22;10421;49.142;9.232;2023-05-10T01:54:37;16.50;99.90
20526;DHT22;10421;49.142;9.232;2023-05-10T01:57:06;16.40;99.90
20526;DHT22;10421;49.142;9.232;2023-05-10T01:59:36;16.50;99.90
20526;DHT22;10421;49.142;9.232;2023-05-10T02:02:06;16.40;99.90
20526;DHT22;10421;49.142;9.232;2023-05-10T02:04:35;16.40;99.90
20526;DHT22;10421;49.142;9.232;2023-05-10T02:07:04;16.40;99.90
20526;DHT22;10421;49.142;9.232;2023-05-10T02:09:32;16.40;99.90
20526;DHT22;10421;49.142;9.232;2023-05-10T02:12:01;16.30;99.90
20526;DHT22;10421;49.142;9.232;2023-05-10T02:14:33;16.40;99.90
20526;DHT22;10421;49.142;9.232;2023-05-10T02:17:02;16.40;99.90
20526;DHT22;10421;49.142;9.232;2023-05-10T02:19:32;16.40;99.90
20526;DHT22;10421;49.142;9.232;2023-05-10T02:22:01;16.50;99.90
20526;DHT22;10421;49.142;9.232;2023-05-10T02:24:28;16.40;99.90
20526;DHT22;10421;49.142;9.232;2023-05-10T02:26:56;16.40;99.90
20526;DHT22;10421;49.142;9.232;2023-05-10T02:29:23;16.30;99.90
20526;DHT22;10421;49.142;9.232;2023-05-10T02:31:51;16.40;99.90
20526;DHT22;10421;49.142;9.232;2023-05-10T02:34:19;16.30;99.90
20526;DHT22;10421;49.142;9.232;2023-05-10T02:36:47;16.30;99.90
20526;DHT22;10421;49.142;9.232;2023-05-10T02:39:16;16.30;99.90
20526;DHT22;10421;49.142;9.232;2023-05-10T02:41:45;16.30;99.90
20526;DHT22;10421;49.142;9.232;2023-05-10T02:44:14;16.30;99.90
20526;DHT22;10421;49.142;9.232;2023-05-10T02:46:41;16.40;99.90
20526;DHT22;10421;49.142;9.232;2023-05-10T02:49:08;16.40;99.90
20526;DHT22;10421;49.142;9.232;2023-05-10T02:51:38;16.40;99.90
20526;DHT22;10421;49.142;9.232;2023-05-10T02:54:10;16.40;99.90
20526;DHT22;10421;49.142;9.232;2023-05-10T02:56:47;16.40;99.90
20526;DHT22;10421;49.142;9.232;2023-05-10T02:59:15;16.40;99.90
20526;DHT22;10421;49.142;9.232;2023-05-10T03:01:42;16.40;99.90
20526;DHT22;10421;49.142;9.232;2023-05-10T03:04:09;16.40;99.90
20526;DHT22;10421;49.142;9.232;2023-05-10T03:06:36;16.30;99.90
20526;DHT22;10421;49.142;9.232;2023-05-10T03:09:03;16.30;99.90
20526;DHT22;10421;49.142;9.232;2023-05-10T03:11:39;16.30;99.90
20526;DHT22;10421;49.142;9.232;2023-05-10T03:14:21;16.30;99.90
20526;DHT22;10421;49.142;9.232;2023-05-10T03:16:56;16.30;99.90
20526;DHT22;10421;49.142;9.232;2023-05-10T03:19:29;16.30;99.90
20526;DHT22;10421;49.142;9.232;2023-05-10T03:21:59;16.30;99.90
20526;DHT22;10421;49.142;9.232;2023-05-10T03:24:30;16.30;99.90
20526;DHT22;10421;49.142;9.232;2023-05-10T03:26:59;16.30;99.90
20526;DHT22;10421;49.142;9.232;2023-05-10T03:29:29;16.30;99.90
20526;DHT22;10421;49.142;9.232;2023-05-10T03:31:57;16.30;99.90
20526;DHT22;10421;49.142;9.232;2023-05-10T03:34:25;16.30;99.90
20526;DHT22;10421;49.142;9.232;2023-05-10T03:36:52;16.40;99.90
20526;DHT22;10421;49.142;9.232;2023-05-10T03:39:18;16.30;99.90
20526;DHT22;10421;49.142;9.232;2023-05-10T03:41:46;16.30;99.90
20526;DHT22;10421;49.142;9.232;2023-05-10T03:44:13;16.40;99.90
20526;DHT22;10421;49.142;9.232;2023-05-10T03:46:41;16.40;99.90
20526;DHT22;10421;49.142;9.232;2023-05-10T03:49:08;16.40;99.90
20526;DHT22;10421;49.142;9.232;2023-05-10T03:51:34;16.40;99.90
20526;DHT22;10421;49.142;9.232;2023-05-10T03:54:01;16.40;99.90
20526;DHT22;10421;49.142;9.232;2023-05-10T03:56:28;16.40;99.90
20526;DHT22;10421;49.142;9.232;2023-05-10T03:58:55;16.50;99.90
20526;DHT22;10421;49.142;9.232;2023-05-10T04:01:22;16.40;99.90
20526;DHT22;10421;49.142;9.232;2023-05-10T04:03:50;16.40;99.90
20526;DHT22;10421;49.142;9.232;2023-05-10T04:06:16;16.40;99.90
20526;DHT22;10421;49.142;9.232;2023-05-10T04:08:43;16.30;99.90
20526;DHT22;10421;49.142;9.232;2023-05-10T04:11:11;16.30;99.90
20526;DHT22;10421;49.142;9.232;2023-05-10T04:13:39;16.30;99.90
20526;DHT22;10421;49.142;9.232;2023-05-10T04:16:06;16.30;99.90
20526;DHT22;10421;49.142;9.232;2023-05-10T04:18:32;16.20;99.90
20526;DHT22;10421;49.142;9.232;2023-05-10T04:21:00;16.20;99.90
20526;DHT22;10421;49.142;9.232;2023-05-10T04:23:28;16.10;99.90
20526;DHT22;10421;49.142;9.232;2023-05-10T04:25:59;16.10;99.90
20526;DHT22;10421;49.142;9.232;2023-05-10T04:28:26;16.10;99.90
20526;DHT22;10421;49.142;9.232;2023-05-10T04:30:52;16.10;99.90
20526;DHT22;10421;49.142;9.232;2023-05-10T04:33:19;16.00;99.90
20526;DHT22;10421;49.142;9.232;2023-05-10T04:35:46;15.90;99.90
20526;DHT22;10421;49.142;9.232;2023-05-10T04:38:14;15.90;99.90
20526;DHT22;10421;49.142;9.232;2023-05-10T04:40:41;15.90;99.90
20526;DHT22;10421;49.142;9.232;2023-05-10T04:43:07;15.90;99.90
20526;DHT22;10421;49.142;9.232;2023-05-10T04:45:37;15.80;99.90
20526;DHT22;10421;49.142;9.232;2023-05-10T04:48:04;15.90;99.90
20526;DHT22;10421;49.142;9.232;2023-05-10T04:50:31;15.90;99.90
20526;DHT22;10421;49.142;9.232;2023-05-10T04:52:58;15.80;99.90
20526;DHT22;10421;49.142;9.232;2023-05-10T04:55:26;15.80;99.90
20526;DHT22;10421;49.142;9.232;2023-05-10T04:57:53;15.90;99.90
20526;DHT22;10421;49.142;9.232;2023-05-10T05:00:22;16.00;99.90
20526;DHT22;10421;49.142;9.232;2023-05-10T05:02:48;16.10;99.90
20526;DHT22;10421;49.142;9.232;2023-05-10T05:05:15;16.00;99.90
20526;DHT22;10421;49.142;9.232;2023-05-10T05:07:42;16.10;99.90
20526;DHT22;10421;49.142;9.232;2023-05-10T05:10:09;16.10;99.90
20526;DHT22;10421;49.142;9.232;2023-05-10T05:12:37;16.10;99.90
20526;DHT22;10421;49.142;9.232;2023-05-10T05:15:05;16.10;99.90
20526;DHT22;10421;49.142;9.232;2023-05-10T05:17:33;16.10;99.90
20526;DHT22;10421;49.142;9.232;2023-05-10T05:20:00;16.10;99.90
20526;DHT22;10421;49.142;9.232;2023-05-10T05:22:27;16.10;99.90
20526;DHT22;10421;49.142;9.232;2023-05-10T05:24:54;16.20;99.90
20526;DHT22;10421;49.142;9.232;2023-05-10T05:27:20;16.20;99.90
20526;DHT22;10421;49.142;9.232;2023-05-10T05:29:52;16.20;99.90
20526;DHT22;10421;49.142;9.232;2023-05-10T05:32:18;16.30;99.90
20526;DHT22;10421;49.142;9.232;2023-05-10T05:34:45;16.30;99.90
20526;DHT22;10421;49.142;9.232;2023-05-10T05:37:13;16.30;99.90
20526;DHT22;10421;49.142;9.232;2023-05-10T05:39:40;16.40;99.90
20526;DHT22;10421;49.142;9.232;2023-05-10T05:42:08;16.40;99.90
20526;DHT22;10421;49.142;9.232;2023-05-10T05:44:34;16.30;99.90
20526;DHT22;10421;49.142;9.232;2023-05-10T05:47:03;16.30;99.90
20526;DHT22;10421;49.142;9.232;2023-05-10T05:49:30;16.30;99.90
20526;DHT22;10421;49.142;9.232;2023-05-10T05:51:58;16.40;99.90
20526;DHT22;10421;49.142;9.232;2023-05-10T05:54:25;16.50;99.90
20526;DHT22;10421;49.142;9.232;2023-05-10T05:56:54;16.40;99.90
20526;DHT22;10421;49.142;9.232;2023-05-10T05:59:20;16.40;99.90
20526;DHT22;10421;49.142;9.232;2023-05-10T06:01:47;16.40;99.90
20526;DHT22;10421;49.142;9.232;2023-05-10T06:04:15;16.40;99.90
20526;DHT22;10421;49.142;9.232;2023-05-10T06:06:42;16.50;99.90
20526;DHT22;10421;49.142;9.232;2023-05-10T06:09:09;16.50;99.90
20526;DHT22;10421;49.142;9.232;2023-05-10T06:11:36;16.50;99.90
20526;DHT22;10421;49.142;9.232;2023-05-10T06:14:03;16.50;99.90
20526;DHT22;10421;49.142;9.232;2023-05-10T06:16:32;16.50;99.90
20526;DHT22;10421;49.142;9.232;2023-05-10T06:18:59;16.50;99.90
20526;DHT22;10421;49.142;9.232;2023-05-10T06:21:27;16.50;99.90
20526;DHT22;10421;49.142;9.232;2023-05-10T06:23:54;16.50;99.90
20526;DHT22;10421;49.142;9.232;2023-05-10T06:26:20;16.60;99.90
20526;DHT22;10421;49.142;9.232;2023-05-10T06:28:47;16.50;99.90
20526;DHT22;10421;49.142;9.232;2023-05-10T06:31:14;16.60;99.90
20526;DHT22;10421;49.142;9.232;2023-05-10T06:33:41;16.60;99.90
20526;DHT22;10421;49.142;9.232;2023-05-10T06:36:08;16.50;99.90
20526;DHT22;10421;49.142;9.232;2023-05-10T06:38:36;16.50;99.90
20526;DHT22;10421;49.142;9.232;2023-05-10T06:41:03;16.50;99.90
20526;DHT22;10421;49.142;9.232;2023-05-10T06:43:29;16.60;99.90
20526;DHT22;10421;49.142;9.232;2023-05-10T06:45:56;16.60;99.90
20526;DHT22;10421;49.142;9.232;2023-05-10T06:48:23;16.60;99.90
20526;DHT22;10421;49.142;9.232;2023-05-10T06:50:50;16.70;99.90
20526;DHT22;10421;49.142;9.232;2023-05-10T06:53:16;16.70;99.90
20526;DHT22;10421;49.142;9.232;2023-05-10T06:55:45;16.70;99.90
20526;DHT22;10421;49.142;9.232;2023-05-10T06:58:11;16.70;99.90
20526;DHT22;10421;49.142;9.232;2023-05-10T07:00:38;16.80;99.90
20526;DHT22;10421;49.142;9.232;2023-05-10T07:03:05;16.90;99.90
20526;DHT22;10421;49.142;9.232;2023-05-10T07:05:32;16.90;99.90
20526;DHT22;10421;49.142;9.232;2023-05-10T07:07:59;16.90;99.90
20526;DHT22;10421;49.142;9.232;2023-05-10T07:10:26;16.90;99.90
20526;DHT22;10421;49.142;9.232;2023-05-10T07:12:54;16.90;99.90
20526;DHT22;10421;49.142;9.232;2023-05-10T07:15:21;16.90;99.90
20526;DHT22;10421;49.142;9.232;2023-05-10T07:17:48;16.90;99.90
20526;DHT22;10421;49.142;9.232;2023-05-10T07:20:15;16.80;99.90
20526;DHT22;10421;49.142;9.232;2023-05-10T07:22:41;16.80;99.90
20526;DHT22;10421;49.142;9.232;2023-05-10T07:25:08;16.90;99.90
20526;DHT22;10421;49.142;9.232;2023-05-10T07:27:36;16.90;99.90
20526;DHT22;10421;49.142;9.232;2023-05-10T07:30:05;16.90;99.90
20526;DHT22;10421;49.142;9.232;2023-05-10T07:32:31;16.90;99.90
20526;DHT22;10421;49.142;9.232;2023-05-10T07:34:58;16.80;99.90
20526;DHT22;10421;49.142;9.232;2023-05-10T07:37:25;16.90;99.90
20526;DHT22;10421;49.142;9.232;2023-05-10T07:39:52;16.90;99.90
20526;DHT22;10421;49.142;9.232;2023-05-10T07:42:18;17.00;99.90
20526;DHT22;10421;49.142;9.232;2023-05-10T07:44:45;17.00;99.90
20526;DHT22;10421;49.142;9.232;2023-05-10T07:47:14;17.00;99.90
20526;DHT22;10421;49.142;9.232;2023-05-10T07:49:40;17.00;99.90
20526;DHT22;10421;49.142;9.232;2023-05-10T07:52:07;16.90;99.90
20526;DHT22;10421;49.142;9.232;2023-05-10T07:54:34;16.70;99.90
20526;DHT22;10421;49.142;9.232;2023-05-10T07:57:01;16.70;99.90
20526;DHT22;10421;49.142;9.232;2023-05-10T07:59:28;16.70;99.90
20526;DHT22;10421;49.142;9.232;2023-05-10T08:01:55;16.70;99.90
20526;DHT22;10421;49.142;9.232;2023-05-10T08:04:23;16.80;99.90
20526;DHT22;10421;49.142;9.232;2023-05-10T08:06:50;16.90;99.90
20526;DHT22;10421;49.142;9.232;2023-05-10T08:09:17;17.00;99.90
20526;DHT22;10421;49.142;9.232;2023-05-10T08:11:49;17.10;99.90
20526;DHT22;10421;49.142;9.232;2023-05-10T08:14:15;17.10;99.90
20526;DHT22;10421;49.142;9.232;2023-05-10T08:16:45;17.20;99.90
20526;DHT22;10421;49.142;9.232;2023-05-10T08:19:12;17.30;99.90
20526;DHT22;10421;49.142;9.232;2023-05-10T08:21:40;17.50;99.90
20526;DHT22;10421;49.142;9.232;2023-05-10T08:24:07;17.60;99.90
20526;DHT22;10421;49.142;9.232;2023-05-10T08:26:34;17.70;99.90
20526;DHT22;10421;49.142;9.232;2023-05-10T08:29:01;17.70;99.90
20526;DHT22;10421;49.142;9.232;2023-05-10T08:31:28;17.80;99.90
20526;DHT22;10421;49.142;9.232;2023-05-10T08:33:55;17.80;99.90
20526;DHT22;10421;49.142;9.232;2023-05-10T08:36:22;17.80;99.90
20526;DHT22;10421;49.142;9.232;2023-05-10T08:38:51;17.90;99.90
20526;DHT22;10421;49.142;9.232;2023-05-10T08:41:19;17.90;99.90
20526;DHT22;10421;49.142;9.232;2023-05-10T08:43:47;18.00;99.90
20526;DHT22;10421;49.142;9.232;2023-05-10T08:46:16;17.90;99.90
20526;DHT22;10421;49.142;9.232;2023-05-10T08:48:45;17.80;99.90
20526;DHT22;10421;49.142;9.232;2023-05-10T08:51:14;17.80;99.90
20526;DHT22;10421;49.142;9.232;2023-05-10T08:53:42;17.90;99.90
20526;DHT22;10421;49.142;9.232;2023-05-10T08:56:10;18.00;99.90
20526;DHT22;10421;49.142;9.232;2023-05-10T08:58:37;17.90;99.90
20526;DHT22;10421;49.142;9.232;2023-05-10T09:01:05;17.80;99.90
20526;DHT22;10421;49.142;9.232;2023-05-10T09:03:32;17.90;99.90
20526;DHT22;10421;49.142;9.232;2023-05-10T09:06:00;17.90;99.90
20526;DHT22;10421;49.142;9.232;2023-05-10T09:08:27;18.00;99.90
20526;DHT22;10421;49.142;9.232;2023-05-10T09:10:56;18.10;99.90
20526;DHT22;10421;49.142;9.232;2023-05-10T09:13:25;18.10;99.90
20526;DHT22;10421;49.142;9.232;2023-05-10T09:15:52;18.20;99.90
20526;DHT22;10421;49.142;9.232;2023-05-10T09:18:19;18.30;99.90
20526;DHT22;10421;49.142;9.232;2023-05-10T09:20:46;18.30;99.30
20526;DHT22;10421;49.142;9.232;2023-05-10T09:23:13;18.30;99.60
20526;DHT22;10421;49.142;9.232;2023-05-10T09:25:41;18.30;99.60
20526;DHT22;10421;49.142;9.232;2023-05-10T09:28:11;18.40;99.50
20526;DHT22;10421;49.142;9.232;2023-05-10T09:30:39;18.60;99.30
20526;DHT22;10421;49.142;9.232;2023-05-10T09:33:06;18.70;99.60
20526;DHT22;10421;49.142;9.232;2023-05-10T09:35:33;18.70;98.90
20526;DHT22;10421;49.142;9.232;2023-05-10T09:38:02;18.50;99.10
20526;DHT22;10421;49.142;9.232;2023-05-10T09:40:29;18.60;98.70
20526;DHT22;10421;49.142;9.232;2023-05-10T09:42:58;18.70;98.90
20526;DHT22;10421;49.142;9.232;2023-05-10T09:45:26;18.80;98.70
20526;DHT22;10421;49.142;9.232;2023-05-10T09:47:55;18.80;99.00
20526;DHT22;10421;49.142;9.232;2023-05-10T09:50:22;19.00;98.50
20526;DHT22;10421;49.142;9.232;2023-05-10T09:52:51;18.90;98.50
20526;DHT22;10421;49.142;9.232;2023-05-10T09:55:20;18.80;98.40
20526;DHT22;10421;49.142;9.232;2023-05-10T09:57:47;18.80;98.60
20526;DHT22;10421;49.142;9.232;2023-05-10T10:00:18;18.80;98.60
20526;DHT22;10421;49.142;9.232;2023-05-10T10:02:47;18.90;98.70
20526;DHT22;10421;49.142;9.232;2023-05-10T10:05:15;18.80;99.20
20526;DHT22;10421;49.142;9.232;2023-05-10T10:07:42;18.80;98.20
20526;DHT22;10421;49.142;9.232;2023-05-10T10:10:10;18.80;98.10
20526;DHT22;10421;49.142;9.232;2023-05-10T10:12:39;18.80;97.90
20526;DHT22;10421;49.142;9.232;2023-05-10T10:15:08;18.90;97.90
20526;DHT22;10421;49.142;9.232;2023-05-10T10:17:36;19.00;97.90
20526;DHT22;10421;49.142;9.232;2023-05-10T10:20:04;19.10;97.60
20526;DHT22;10421;49.142;9.232;2023-05-10T10:22:33;19.20;97.70
20526;DHT22;10421;49.142;9.232;2023-05-10T10:25:00;19.20;97.30
20526;DHT22;10421;49.142;9.232;2023-05-10T10:27:33;19.20;97.20
20526;DHT22;10421;49.142;9.232;2023-05-10T10:30:06;19.10;95.90
20526;DHT22;10421;49.142;9.232;2023-05-10T10:32:47;18.80;96.30
20526;DHT22;10421;49.142;9.232;2023-05-10T10:35:20;18.60;96.70
20526;DHT22;10421;49.142;9.232;2023-05-10T10:37:50;18.50;97.00
20526;DHT22;10421;49.142;9.232;2023-05-10T10:40:27;18.40;97.10
20526;DHT22;10421;49.142;9.232;2023-05-10T10:42:55;18.40;97.50
20526;DHT22;10421;49.142;9.232;2023-05-10T10:45:23;18.40;97.60
20526;DHT22;10421;49.142;9.232;2023-05-10T10:50:43;18.30;98.00
20526;DHT22;10421;49.142;9.232;2023-05-10T10:53:12;18.30;98.50
20526;DHT22;10421;49.142;9.232;2023-05-10T10:55:46;18.30;99.30
20526;DHT22;10421;49.142;9.232;2023-05-10T10:58:31;18.20;99.80
20526;DHT22;10421;49.142;9.232;2023-05-10T11:01:11;18.20;99.90
20526;DHT22;10421;49.142;9.232;2023-05-10T11:03:38;18.30;99.90
20526;DHT22;10421;49.142;9.232;2023-05-10T11:06:05;18.30;99.90
20526;DHT22;10421;49.142;9.232;2023-05-10T11:08:41;18.40;99.90
20526;DHT22;10421;49.142;9.232;2023-05-10T11:11:08;18.50;99.90
20526;DHT22;10421;49.142;9.232;2023-05-10T11:13:41;18.70;99.90
20526;DHT22;10421;49.142;9.232;2023-05-10T11:16:13;18.70;99.80
20526;DHT22;10421;49.142;9.232;2023-05-10T11:21:45;18.70;98.30
20526;DHT22;10421;49.142;9.232;2023-05-10T11:24:15;18.60;98.10
20526;DHT22;10421;49.142;9.232;2023-05-10T11:26:42;18.60;98.20
20526;DHT22;10421;49.142;9.232;2023-05-10T11:29:12;18.60;98.60
20526;DHT22;10421;49.142;9.232;2023-05-10T11:31:42;18.60;98.60
20526;DHT22;10421;49.142;9.232;2023-05-10T11:34:10;18.60;98.50
20526;DHT22;10421;49.142;9.232;2023-05-10T11:36:38;18.50;98.20
20526;DHT22;10421;49.142;9.232;2023-05-10T11:39:05;18.50;98.40
20526;DHT22;10421;49.142;9.232;2023-05-10T11:41:33;18.40;98.70
20526;DHT22;10421;49.142;9.232;2023-05-10T11:43:59;18.40;98.40
20526;DHT22;10421;49.142;9.232;2023-05-10T11:46:27;18.40;97.30
20526;DHT22;10421;49.142;9.232;2023-05-10T11:49:00;18.40;96.00
20526;DHT22;10421;49.142;9.232;2023-05-10T11:51:29;18.40;95.60
20526;DHT22;10421;49.142;9.232;2023-05-10T11:53:59;18.40;95.40
20526;DHT22;10421;49.142;9.232;2023-05-10T11:56:26;18.50;95.60
20526;DHT22;10421;49.142;9.232;2023-05-10T11:58:55;18.50;95.80
20526;DHT22;10421;49.142;9.232;2023-05-10T12:01:23;18.40;96.30
20526;DHT22;10421;49.142;9.232;2023-05-10T12:03:51;18.40;96.70
20526;DHT22;10421;49.142;9.232;2023-05-10T12:06:19;18.40;97.00
20526;DHT22;10421;49.142;9.232;2023-05-10T12:08:47;18.50;97.20
20526;DHT22;10421;49.142;9.232;2023-05-10T12:11:17;18.50;97.10
20526;DHT22;10421;49.142;9.232;2023-05-10T12:13:46;18.60;97.10
20526;DHT22;10421;49.142;9.232;2023-05-10T12:16:15;18.60;97.40
20526;DHT22;10421;49.142;9.232;2023-05-10T12:18:42;18.80;97.50
20526;DHT22;10421;49.142;9.232;2023-05-10T12:21:10;18.90;97.30
20526;DHT22;10421;49.142;9.232;2023-05-10T12:23:38;18.90;97.10
20526;DHT22;10421;49.142;9.232;2023-05-10T12:26:05;19.00;97.20
20526;DHT22;10421;49.142;9.232;2023-05-10T12:28:32;19.00;96.90
20526;DHT22;10421;49.142;9.232;2023-05-10T12:30:59;19.00;97.00
20526;DHT22;10421;49.142;9.232;2023-05-10T12:33:35;19.00;97.00
20526;DHT22;10421;49.142;9.232;2023-05-10T12:36:02;18.80;96.90
20526;DHT22;10421;49.142;9.232;2023-05-10T12:38:32;18.90;96.90
20526;DHT22;10421;49.142;9.232;2023-05-10T12:41:00;19.00;96.90
20526;DHT22;10421;49.142;9.232;2023-05-10T12:43:28;19.10;96.60
20526;DHT22;10421;49.142;9.232;2023-05-10T12:45:55;19.20;96.10
20526;DHT22;10421;49.142;9.232;2023-05-10T12:48:21;19.20;96.20
20526;DHT22;10421;49.142;9.232;2023-05-10T12:50:50;19.20;96.10
20526;DHT22;10421;49.142;9.232;2023-05-10T12:53:16;19.30;96.20
20526;DHT22;10421;49.142;9.232;2023-05-10T12:55:43;19.30;96.30
20526;DHT22;10421;49.142;9.232;2023-05-10T12:58:10;19.30;96.10
20526;DHT22;10421;49.142;9.232;2023-05-10T13:00:37;19.30;95.90
20526;DHT22;10421;49.142;9.232;2023-05-10T13:03:04;19.40;95.70
20526;DHT22;10421;49.142;9.232;2023-05-10T13:05:31;19.50;95.50
20526;DHT22;10421;49.142;9.232;2023-05-10T13:07:59;19.50;94.60
20526;DHT22;10421;49.142;9.232;2023-05-10T13:10:27;19.30;93.90
20526;DHT22;10421;49.142;9.232;2023-05-10T13:12:54;19.30;94.20
20526;DHT22;10421;49.142;9.232;2023-05-10T13:15:21;19.30;94.30
20526;DHT22;10421;49.142;9.232;2023-05-10T13:17:48;19.40;94.70
20526;DHT22;10421;49.142;9.232;2023-05-10T13:20:15;19.50;94.90
20526;DHT22;10421;49.142;9.232;2023-05-10T13:22:42;19.60;94.60
20526;DHT22;10421;49.142;9.232;2023-05-10T13:25:11;19.60;94.30
20526;DHT22;10421;49.142;9.232;2023-05-10T13:27:38;19.70;94.50
20526;DHT22;10421;49.142;9.232;2023-05-10T13:30:06;19.90;94.40
20526;DHT22;10421;49.142;9.232;2023-05-10T13:32:33;20.00;94.20
20526;DHT22;10421;49.142;9.232;2023-05-10T13:35:01;20.00;93.50
20526;DHT22;10421;49.142;9.232;2023-05-10T13:37:31;20.00;93.30
20526;DHT22;10421;49.142;9.232;2023-05-10T13:40:00;20.10;93.50
20526;DHT22;10421;49.142;9.232;2023-05-10T13:42:28;20.10;93.40
20526;DHT22;10421;49.142;9.232;2023-05-10T13:44:57;20.20;93.00
20526;DHT22;10421;49.142;9.232;2023-05-10T13:47:23;20.30;93.00
20526;DHT22;10421;49.142;9.232;2023-05-10T13:49:50;20.30;92.00
20526;DHT22;10421;49.142;9.232;2023-05-10T13:52:17;20.30;90.80
20526;DHT22;10421;49.142;9.232;2023-05-10T13:54:44;20.30;90.50
20526;DHT22;10421;49.142;9.232;2023-05-10T13:57:11;20.20;90.50
20526;DHT22;10421;49.142;9.232;2023-05-10T13:59:40;20.20;90.20
20526;DHT22;10421;49.142;9.232;2023-05-10T14:02:07;20.30;90.20
20526;DHT22;10421;49.142;9.232;2023-05-10T14:04:34;20.30;90.30
20526;DHT22;10421;49.142;9.232;2023-05-10T14:07:01;20.40;90.10
20526;DHT22;10421;49.142;9.232;2023-05-10T14:09:28;20.40;89.30
20526;DHT22;10421;49.142;9.232;2023-05-10T14:11:55;20.30;87.70
20526;DHT22;10421;49.142;9.232;2023-05-10T14:14:22;20.30;85.70
20526;DHT22;10421;49.142;9.232;2023-05-10T14:16:50;20.30;84.00
20526;DHT22;10421;49.142;9.232;2023-05-10T14:19:17;20.30;86.50
20526;DHT22;10421;49.142;9.232;2023-05-10T14:21:44;20.30;85.80
20526;DHT22;10421;49.142;9.232;2023-05-10T14:24:11;20.30;87.10
20526;DHT22;10421;49.142;9.232;2023-05-10T14:26:38;20.10;84.40
20526;DHT22;10421;49.142;9.232;2023-05-10T14:29:04;20.00;85.30
20526;DHT22;10421;49.142;9.232;2023-05-10T14:31:31;20.10;84.80
20526;DHT22;10421;49.142;9.232;2023-05-10T14:33:59;20.10;83.60
20526;DHT22;10421;49.142;9.232;2023-05-10T14:36:26;20.10;83.10
20526;DHT22;10421;49.142;9.232;2023-05-10T14:38:53;20.00;83.80
20526;DHT22;10421;49.142;9.232;2023-05-10T14:41:19;20.00;83.20
20526;DHT22;10421;49.142;9.232;2023-05-10T14:43:46;19.80;82.70
20526;DHT22;10421;49.142;9.232;2023-05-10T14:46:13;19.80;83.90
20526;DHT22;10421;49.142;9.232;2023-05-10T14:48:40;19.90;83.90
20526;DHT22;10421;49.142;9.232;2023-05-10T14:51:08;20.00;84.00
20526;DHT22;10421;49.142;9.232;2023-05-10T14:53:34;20.00;83.00
20526;DHT22;10421;49.142;9.232;2023-05-10T14:56:01;20.00;83.60
20526;DHT22;10421;49.142;9.232;2023-05-10T14:58:28;19.80;82.80
20526;DHT22;10421;49.142;9.232;2023-05-10T15:00:55;19.80;84.10
20526;DHT22;10421;49.142;9.232;2023-05-10T15:03:22;19.70;83.60
20526;DHT22;10421;49.142;9.232;2023-05-10T15:05:49;19.60;83.80
20526;DHT22;10421;49.142;9.232;2023-05-10T15:08:18;19.50;84.10
20526;DHT22;10421;49.142;9.232;2023-05-10T15:10:45;19.50;84.60
20526;DHT22;10421;49.142;9.232;2023-05-10T15:13:11;19.60;83.50
20526;DHT22;10421;49.142;9.232;2023-05-10T15:15:38;19.60;84.00
20526;DHT22;10421;49.142;9.232;2023-05-10T15:18:05;19.60;84.50
20526;DHT22;10421;49.142;9.232;2023-05-10T15:20:32;19.70;84.90
20526;DHT22;10421;49.142;9.232;2023-05-10T15:22:58;19.60;84.20
20526;DHT22;10421;49.142;9.232;2023-05-10T15:25:26;19.70;84.20
20526;DHT22;10421;49.142;9.232;2023-05-10T15:27:54;19.60;82.80
20526;DHT22;10421;49.142;9.232;2023-05-10T15:30:21;19.50;83.00
20526;DHT22;10421;49.142;9.232;2023-05-10T15:32:47;19.50;83.30
20526;DHT22;10421;49.142;9.232;2023-05-10T15:35:14;19.50;83.40
20526;DHT22;10421;49.142;9.232;2023-05-10T15:37:42;19.60;84.00
20526;DHT22;10421;49.142;9.232;2023-05-10T15:40:09;19.60;84.40
20526;DHT22;10421;49.142;9.232;2023-05-10T15:42:37;19.60;82.60